createdAt,value
2022-12-23T00:00:14.515Z,10.60
2022-12-23T00:01:16.808Z,10.60
2022-12-23T00:02:18.686Z,10.60
2022-12-23T00:03:20.623Z,10.60
2022-12-23T00:04:22.584Z,10.70
2022-12-23T00:05:24.441Z,10.70
2022-12-23T00:06:26.795Z,10.70
2022-12-23T00:07:28.733Z,10.70
2022-12-23T00:08:31.894Z,10.70
2022-12-23T00:09:33.947Z,10.70
2022-12-23T00:10:39.964Z,10.70
2022-12-23T00:12:01.708Z,10.70
2022-12-23T00:13:21.999Z,10.70
2022-12-23T00:14:42.660Z,10.70
2022-12-23T00:15:44.762Z,10.70
2022-12-23T00:16:46.547Z,10.70
2022-12-23T00:17:49.119Z,10.70
2022-12-23T00:18:52.274Z,10.70
2022-12-23T00:19:55.735Z,10.70
2022-12-23T00:21:03.310Z,10.70
2022-12-23T00:22:08.605Z,10.70
2022-12-23T00:23:11.760Z,10.70
2022-12-23T00:24:14.692Z,10.70
2022-12-23T00:25:16.758Z,10.70
2022-12-23T00:26:24.683Z,10.70
2022-12-23T00:27:26.441Z,10.70
2022-12-23T00:28:30.518Z,10.70
2022-12-23T00:29:32.338Z,10.70
2022-12-23T00:30:34.228Z,10.70
2022-12-23T00:31:36.078Z,10.70
2022-12-23T00:32:38.422Z,10.70
2022-12-23T00:33:45.793Z,10.70
2022-12-23T00:34:47.574Z,10.70
2022-12-23T00:35:50.105Z,10.60
2022-12-23T00:36:51.989Z,10.70
2022-12-23T00:37:53.786Z,10.60
2022-12-23T00:39:15.725Z,10.60
2022-12-23T00:40:36.402Z,10.60
2022-12-23T00:41:57.037Z,10.60
2022-12-23T00:42:59.637Z,10.60
2022-12-23T00:44:02.295Z,10.60
2022-12-23T00:45:15.710Z,10.60
2022-12-23T00:46:18.062Z,10.60
2022-12-23T00:47:38.765Z,10.60
2022-12-23T00:48:59.091Z,10.60
2022-12-23T00:50:02.552Z,10.60
2022-12-23T00:51:04.669Z,10.60
2022-12-23T00:52:10.383Z,10.60
2022-12-23T00:53:12.123Z,10.60
2022-12-23T00:54:13.993Z,10.60
2022-12-23T00:55:15.821Z,10.60
2022-12-23T00:56:17.850Z,10.60
2022-12-23T00:57:19.739Z,10.60
2022-12-23T00:58:22.496Z,10.60
2022-12-23T00:59:24.323Z,10.60
2022-12-23T01:00:45.112Z,10.60
2022-12-23T01:02:06.061Z,10.60
2022-12-23T01:03:30.481Z,10.60
2022-12-23T01:04:52.415Z,10.60
2022-12-23T01:06:00.124Z,10.60
2022-12-23T01:07:02.877Z,10.60
2022-12-23T01:08:07.228Z,10.60
2022-12-23T01:09:09.074Z,10.60
2022-12-23T01:10:10.980Z,10.60
2022-12-23T01:11:13.105Z,10.60
2022-12-23T01:12:14.987Z,10.60
2022-12-23T01:13:17.011Z,10.60
2022-12-23T01:14:18.887Z,10.60
2022-12-23T01:15:20.820Z,10.60
2022-12-23T01:16:22.665Z,10.60
2022-12-23T01:17:24.604Z,10.60
2022-12-23T01:18:27.613Z,10.60
2022-12-23T01:19:29.556Z,10.60
2022-12-23T01:20:31.448Z,10.60
2022-12-23T01:21:33.544Z,10.60
2022-12-23T01:22:35.349Z,10.60
2022-12-23T01:23:40.729Z,10.60
2022-12-23T01:24:42.648Z,10.60
2022-12-23T01:25:45.273Z,10.60
2022-12-23T01:26:48.777Z,10.60
2022-12-23T01:27:50.675Z,10.60
2022-12-23T01:28:57.141Z,10.60
2022-12-23T01:30:00.527Z,10.60
2022-12-23T01:31:04.572Z,10.60
2022-12-23T01:32:06.908Z,10.60
2022-12-23T01:33:08.995Z,10.60
2022-12-23T01:34:12.454Z,10.60
2022-12-23T01:35:14.522Z,10.60
2022-12-23T01:36:18.136Z,10.60
2022-12-23T01:37:19.951Z,10.60
2022-12-23T01:38:21.989Z,10.60
2022-12-23T01:39:23.864Z,10.60
2022-12-23T01:40:27.035Z,10.60
2022-12-23T01:41:49.683Z,10.60
2022-12-23T01:42:52.691Z,10.60
2022-12-23T01:43:54.416Z,10.60
2022-12-23T01:45:02.579Z,10.60
2022-12-23T01:46:04.540Z,10.60
2022-12-23T01:47:11.810Z,10.60
2022-12-23T01:48:24.520Z,10.60
2022-12-23T01:49:27.917Z,10.60
2022-12-23T01:50:56.485Z,10.60
2022-12-23T01:51:58.917Z,10.60
2022-12-23T01:53:22.310Z,10.60
2022-12-23T01:54:24.175Z,10.60
2022-12-23T01:55:29.303Z,10.60
2022-12-23T01:56:36.246Z,10.60
2022-12-23T01:57:42.022Z,10.60
2022-12-23T01:58:52.261Z,10.60
2022-12-23T02:00:12.946Z,10.60
2022-12-23T02:01:33.775Z,10.60
2022-12-23T02:02:56.113Z,10.60
2022-12-23T02:04:00.651Z,10.60
2022-12-23T02:05:03.304Z,10.60
2022-12-23T02:06:24.138Z,10.60
2022-12-23T02:07:45.401Z,10.60
2022-12-23T02:09:07.030Z,10.60
2022-12-23T02:10:09.479Z,10.60
2022-12-23T02:11:24.245Z,10.60
2022-12-23T02:12:26.625Z,10.60
2022-12-23T02:14:15.530Z,10.60
2022-12-23T02:16:00.512Z,10.60
2022-12-23T02:17:14.808Z,10.60
2022-12-23T02:18:47.149Z,10.60
2022-12-23T02:20:16.814Z,10.60
2022-12-23T02:21:37.382Z,10.60
2022-12-23T02:22:43.119Z,10.60
2022-12-23T02:23:58.603Z,10.50
2022-12-23T02:25:19.081Z,10.60
2022-12-23T02:27:01.205Z,10.50
2022-12-23T02:28:41.647Z,10.50
2022-12-23T02:30:40.123Z,10.50
2022-12-23T02:32:27.912Z,10.50
2022-12-23T02:34:20.039Z,10.50
2022-12-23T02:35:32.334Z,10.50
2022-12-23T02:37:18.177Z,10.50
2022-12-23T02:38:26.557Z,10.40
2022-12-23T02:39:56.563Z,10.50
2022-12-23T02:41:25.111Z,10.50
2022-12-23T02:43:00.983Z,10.50
2022-12-23T02:44:13.287Z,10.40
2022-12-23T02:45:35.225Z,10.40
2022-12-23T02:46:46.295Z,10.40
2022-12-23T02:47:59.856Z,10.40
2022-12-23T02:49:20.447Z,10.40
2022-12-23T02:50:30.232Z,10.40
2022-12-23T02:51:39.277Z,10.40
2022-12-23T02:52:42.936Z,10.30
2022-12-23T02:53:57.539Z,10.40
2022-12-23T02:55:05.832Z,10.40
2022-12-23T02:56:10.276Z,10.40
2022-12-23T02:57:14.949Z,10.40
2022-12-23T02:58:22.127Z,10.40
2022-12-23T02:59:30.834Z,10.40
2022-12-23T03:00:33.768Z,10.40
2022-12-23T03:01:37.528Z,10.40
2022-12-23T03:02:41.941Z,10.30
2022-12-23T03:03:47.557Z,10.40
2022-12-23T03:04:49.685Z,10.40
2022-12-23T03:05:53.261Z,10.40
2022-12-23T03:06:57.589Z,10.40
2022-12-23T03:08:03.715Z,10.40
2022-12-23T03:09:06.371Z,10.30
2022-12-23T03:10:39.182Z,10.30
2022-12-23T03:12:01.798Z,10.30
2022-12-23T03:13:25.015Z,10.30
2022-12-23T03:14:51.727Z,10.30
2022-12-23T03:16:35.081Z,10.30
2022-12-23T03:17:55.327Z,10.30
2022-12-23T03:19:42.267Z,10.30
2022-12-23T03:20:53.047Z,10.30
2022-12-23T03:22:13.463Z,10.30
2022-12-23T03:23:29.356Z,10.30
2022-12-23T03:24:47.166Z,10.30
2022-12-23T03:26:14.531Z,10.30
2022-12-23T03:27:26.432Z,10.30
2022-12-23T03:28:38.964Z,10.30
2022-12-23T03:29:48.772Z,10.30
2022-12-23T03:30:56.097Z,10.30
2022-12-23T03:32:00.007Z,10.30
2022-12-23T03:33:18.861Z,10.30
2022-12-23T03:34:26.430Z,10.30
2022-12-23T03:35:36.207Z,10.30
2022-12-23T03:36:45.728Z,10.30
2022-12-23T03:37:51.840Z,10.20
2022-12-23T03:38:55.910Z,10.20
2022-12-23T03:40:05.199Z,10.20
2022-12-23T03:41:11.285Z,10.20
2022-12-23T03:42:36.237Z,10.30
2022-12-23T03:43:50.179Z,10.30
2022-12-23T03:45:19.657Z,10.30
2022-12-23T03:46:29.280Z,10.30
2022-12-23T03:47:35.700Z,10.30
2022-12-23T03:48:43.658Z,10.30
2022-12-23T03:49:54.975Z,10.30
2022-12-23T03:51:01.114Z,10.30
2022-12-23T03:52:36.662Z,10.30
2022-12-23T03:53:53.433Z,10.30
2022-12-23T03:55:01.080Z,10.30
2022-12-23T03:56:10.332Z,10.30
2022-12-23T03:57:13.916Z,10.30
2022-12-23T03:58:45.759Z,10.30
2022-12-23T03:59:53.879Z,10.30
2022-12-23T04:01:18.083Z,10.30
2022-12-23T04:02:48.399Z,10.30
2022-12-23T04:04:30.330Z,10.30
2022-12-23T04:05:36.611Z,10.30
2022-12-23T04:06:49.013Z,10.20
2022-12-23T04:08:11.196Z,10.20
2022-12-23T04:09:19.824Z,10.20
2022-12-23T04:10:25.069Z,10.20
2022-12-23T04:11:27.372Z,10.20
2022-12-23T04:12:30.552Z,10.20
2022-12-23T04:13:32.628Z,10.20
2022-12-23T04:14:35.883Z,10.20
2022-12-23T04:15:41.998Z,10.20
2022-12-23T04:16:46.932Z,10.30
2022-12-23T04:17:52.827Z,10.30
2022-12-23T04:18:55.008Z,10.20
2022-12-23T04:19:58.414Z,10.20
2022-12-23T04:21:00.338Z,10.20
2022-12-23T04:22:03.549Z,10.20
2022-12-23T04:23:05.817Z,10.20
2022-12-23T04:24:09.125Z,10.20
2022-12-23T04:25:12.818Z,10.20
2022-12-23T04:26:14.630Z,10.20
2022-12-23T04:27:17.301Z,10.20
2022-12-23T04:28:20.458Z,10.20
2022-12-23T04:29:23.872Z,10.20
2022-12-23T04:30:31.567Z,10.20
2022-12-23T04:31:37.601Z,10.20
2022-12-23T04:32:40.079Z,10.20
2022-12-23T04:33:41.950Z,10.20
2022-12-23T04:34:43.751Z,10.20
2022-12-23T04:35:45.496Z,10.20
2022-12-23T04:36:47.448Z,10.20
2022-12-23T04:37:50.447Z,10.20
2022-12-23T04:38:52.214Z,10.20
2022-12-23T04:39:53.979Z,10.20
2022-12-23T04:40:55.722Z,10.20
2022-12-23T04:41:57.468Z,10.20
2022-12-23T04:42:59.250Z,10.10
2022-12-23T04:44:01.105Z,10.10
2022-12-23T04:45:03.048Z,10.10
2022-12-23T04:46:04.955Z,10.10
2022-12-23T04:47:06.961Z,10.10
2022-12-23T04:48:09.448Z,10.10
2022-12-23T04:49:11.527Z,10.10
2022-12-23T04:50:16.934Z,10.10
2022-12-23T04:51:20.684Z,10.10
2022-12-23T04:52:22.691Z,10.10
2022-12-23T04:53:25.644Z,10.10
2022-12-23T04:54:27.626Z,10.10
2022-12-23T04:55:30.955Z,10.10
2022-12-23T04:56:32.886Z,10.10
2022-12-23T04:57:34.745Z,10.10
2022-12-23T04:58:36.722Z,10.00
2022-12-23T04:59:38.665Z,10.00
2022-12-23T05:00:40.596Z,10.00
2022-12-23T05:01:42.855Z,10.00
2022-12-23T05:02:45.049Z,10.00
2022-12-23T05:03:47.428Z,10.00
2022-12-23T05:04:49.383Z,10.00
2022-12-23T05:05:51.241Z,10.00
2022-12-23T05:06:54.319Z,10.00
2022-12-23T05:08:03.750Z,10.00
2022-12-23T05:09:06.133Z,10.00
2022-12-23T05:10:08.809Z,10.00
2022-12-23T05:11:10.676Z,10.00
2022-12-23T05:12:12.850Z,10.00
2022-12-23T05:13:15.463Z,10.00
2022-12-23T05:14:18.286Z,10.00
2022-12-23T05:15:21.036Z,10.00
2022-12-23T05:16:23.016Z,10.00
2022-12-23T05:17:25.001Z,10.00
2022-12-23T05:18:26.826Z,10.00
2022-12-23T05:19:28.720Z,10.00
2022-12-23T05:20:30.651Z,10.00
2022-12-23T05:21:32.459Z,10.00
2022-12-23T05:22:34.311Z,10.00
2022-12-23T05:23:36.256Z,10.00
2022-12-23T05:24:38.014Z,10.00
2022-12-23T05:25:40.153Z,10.00
2022-12-23T05:26:46.178Z,10.00
2022-12-23T05:27:49.868Z,10.00
2022-12-23T05:28:51.624Z,10.00
2022-12-23T05:29:53.697Z,10.00
2022-12-23T05:31:00.132Z,10.00
2022-12-23T05:32:02.700Z,10.00
2022-12-23T05:33:05.091Z,9.90
2022-12-23T05:34:07.246Z,9.90
2022-12-23T05:35:09.638Z,9.90
2022-12-23T05:36:13.804Z,9.90
2022-12-23T05:37:15.573Z,9.90
2022-12-23T05:38:17.386Z,9.80
2022-12-23T05:39:19.386Z,9.80
2022-12-23T05:40:23.907Z,9.80
2022-12-23T05:41:27.118Z,9.80
2022-12-23T05:42:29.335Z,9.80
2022-12-23T05:43:31.316Z,9.80
2022-12-23T05:44:33.297Z,9.80
2022-12-23T05:45:36.301Z,9.80
2022-12-23T05:46:39.519Z,9.80
2022-12-23T05:47:41.478Z,9.80
2022-12-23T05:48:43.296Z,9.80
2022-12-23T05:49:45.144Z,9.80
2022-12-23T05:50:51.189Z,9.80
2022-12-23T05:51:53.017Z,9.80
2022-12-23T05:52:57.988Z,9.80
2022-12-23T05:54:00.026Z,9.90
2022-12-23T05:55:01.997Z,9.90
2022-12-23T05:56:06.446Z,9.90
2022-12-23T05:57:08.445Z,9.90
2022-12-23T05:58:10.313Z,9.90
2022-12-23T05:59:12.086Z,9.90
2022-12-23T06:00:14.728Z,9.80
2022-12-23T06:01:16.609Z,9.80
2022-12-23T06:02:18.604Z,9.80
2022-12-23T06:03:21.678Z,9.90
2022-12-23T06:04:24.172Z,9.90
2022-12-23T06:05:27.932Z,9.80
2022-12-23T06:06:30.501Z,9.80
2022-12-23T06:07:33.259Z,9.80
2022-12-23T06:08:35.041Z,9.80
2022-12-23T06:09:37.625Z,9.80
2022-12-23T06:10:39.835Z,9.90
2022-12-23T06:11:41.583Z,9.90
2022-12-23T06:12:44.327Z,9.90
2022-12-23T06:13:46.521Z,9.90
2022-12-23T06:14:48.284Z,9.90
2022-12-23T06:15:50.141Z,9.90
2022-12-23T06:16:52.137Z,9.90
2022-12-23T06:17:55.411Z,9.90
2022-12-23T06:18:57.361Z,9.90
2022-12-23T06:19:59.436Z,9.90
2022-12-23T06:21:01.234Z,9.90
2022-12-23T06:22:03.148Z,9.90
2022-12-23T06:23:05.054Z,9.90
2022-12-23T06:24:07.238Z,9.90
2022-12-23T06:25:09.442Z,9.90
2022-12-23T06:26:11.525Z,9.90
2022-12-23T06:27:15.270Z,10.00
2022-12-23T06:28:17.097Z,9.90
2022-12-23T06:29:19.132Z,9.90
2022-12-23T06:30:23.950Z,9.90
2022-12-23T06:31:26.147Z,9.90
2022-12-23T06:32:31.515Z,9.90
2022-12-23T06:33:36.672Z,9.90
2022-12-23T06:34:39.978Z,9.90
2022-12-23T06:35:43.300Z,9.90
2022-12-23T06:36:45.093Z,9.90
2022-12-23T06:37:47.032Z,9.90
2022-12-23T06:38:49.874Z,9.90
2022-12-23T06:39:51.768Z,9.90
2022-12-23T06:40:53.518Z,9.90
2022-12-23T06:41:55.265Z,10.00
2022-12-23T06:42:57.155Z,10.00
2022-12-23T06:43:59.031Z,10.00
2022-12-23T06:45:01.376Z,10.00
2022-12-23T06:46:03.346Z,10.00
2022-12-23T06:47:05.170Z,10.00
2022-12-23T06:48:07.563Z,10.00
2022-12-23T06:49:13.360Z,10.00
2022-12-23T06:50:16.097Z,10.00
2022-12-23T06:51:19.515Z,10.00
2022-12-23T06:52:23.091Z,10.00
2022-12-23T06:53:27.222Z,10.00
2022-12-23T06:54:29.475Z,10.00
2022-12-23T06:55:32.453Z,10.00
2022-12-23T06:56:34.613Z,10.00
2022-12-23T06:57:37.737Z,10.00
2022-12-23T06:58:39.520Z,10.00
2022-12-23T06:59:41.277Z,10.00
2022-12-23T07:00:43.083Z,9.90
2022-12-23T07:01:44.914Z,9.90
2022-12-23T07:02:47.478Z,9.90
2022-12-23T07:03:50.445Z,9.90
2022-12-23T07:04:52.272Z,9.90
2022-12-23T07:05:55.722Z,9.90
2022-12-23T07:06:58.698Z,9.90
2022-12-23T07:08:00.716Z,9.90
2022-12-23T07:09:02.525Z,9.90
2022-12-23T07:10:04.796Z,9.90
2022-12-23T07:11:08.640Z,9.90
2022-12-23T07:12:10.474Z,9.90
2022-12-23T07:13:12.594Z,9.90
2022-12-23T07:14:14.482Z,9.90
2022-12-23T07:15:17.456Z,9.80
2022-12-23T07:16:21.715Z,9.80
2022-12-23T07:17:23.655Z,9.80
2022-12-23T07:18:26.136Z,9.80
2022-12-23T07:19:28.095Z,9.80
2022-12-23T07:20:30.239Z,9.80
2022-12-23T07:21:32.202Z,9.80
2022-12-23T07:22:34.004Z,9.80
2022-12-23T07:23:35.755Z,9.80
2022-12-23T07:24:38.094Z,9.80
2022-12-23T07:25:40.034Z,9.80
2022-12-23T07:26:41.860Z,9.80
2022-12-23T07:27:43.750Z,9.80
2022-12-23T07:28:48.104Z,9.80
2022-12-23T07:29:50.048Z,9.80
2022-12-23T07:30:51.977Z,9.80
2022-12-23T07:31:53.880Z,9.70
2022-12-23T07:32:55.905Z,9.70
2022-12-23T07:33:57.942Z,9.70
2022-12-23T07:35:00.681Z,9.80
2022-12-23T07:36:03.316Z,9.80
2022-12-23T07:37:05.522Z,9.80
2022-12-23T07:38:07.377Z,9.80
2022-12-23T07:39:10.306Z,9.80
2022-12-23T07:40:13.015Z,9.80
2022-12-23T07:41:14.889Z,9.90
2022-12-23T07:42:43.422Z,9.90
2022-12-23T07:43:38.758Z,9.90
2022-12-23T07:44:40.554Z,9.90
2022-12-23T07:45:42.447Z,9.90
2022-12-23T07:46:44.419Z,9.90
2022-12-23T07:47:46.350Z,9.90
2022-12-23T07:48:48.231Z,9.90
2022-12-23T07:49:50.018Z,9.90
2022-12-23T07:50:51.947Z,9.80
2022-12-23T07:51:53.709Z,9.80
2022-12-23T07:52:56.143Z,9.80
2022-12-23T07:53:58.254Z,9.80
2022-12-23T07:55:00.563Z,9.80
2022-12-23T07:56:02.864Z,9.80
2022-12-23T07:57:04.624Z,9.70
2022-12-23T07:58:06.389Z,9.70
2022-12-23T07:59:08.214Z,9.70
2022-12-23T08:00:12.384Z,9.70
2022-12-23T08:01:14.508Z,9.70
2022-12-23T08:02:17.973Z,9.70
2022-12-23T08:03:20.102Z,9.70
2022-12-23T08:04:22.313Z,9.70
2022-12-23T08:05:24.240Z,9.70
2022-12-23T08:06:26.119Z,9.70
2022-12-23T08:07:27.965Z,9.70
2022-12-23T08:08:30.360Z,9.70
2022-12-23T08:09:32.979Z,9.70
2022-12-23T08:10:34.814Z,9.70
2022-12-23T08:11:38.260Z,9.70
2022-12-23T08:12:41.265Z,9.60
2022-12-23T08:13:45.697Z,9.70
2022-12-23T08:14:48.536Z,9.70
2022-12-23T08:15:57.686Z,9.70
2022-12-23T08:16:59.679Z,9.70
2022-12-23T08:18:01.897Z,9.70
2022-12-23T08:19:04.051Z,9.70
2022-12-23T08:20:06.555Z,9.70
2022-12-23T08:21:18.011Z,9.70
2022-12-23T08:22:19.808Z,9.70
2022-12-23T08:23:24.831Z,9.70
2022-12-23T08:24:26.891Z,9.70
2022-12-23T08:25:29.099Z,9.70
2022-12-23T08:26:32.135Z,9.70
2022-12-23T08:27:34.611Z,9.70
2022-12-23T08:28:37.858Z,9.70
2022-12-23T08:29:40.357Z,9.70
2022-12-23T08:30:42.306Z,9.70
2022-12-23T08:31:44.223Z,9.70
2022-12-23T08:32:46.094Z,9.70
2022-12-23T08:33:52.108Z,9.70
2022-12-23T08:34:57.302Z,9.70
2022-12-23T08:35:59.644Z,9.70
2022-12-23T08:37:03.998Z,9.70
2022-12-23T08:38:06.889Z,9.70
2022-12-23T08:39:13.150Z,9.70
2022-12-23T08:40:15.426Z,9.70
2022-12-23T08:41:21.221Z,9.70
2022-12-23T08:42:24.576Z,9.80
2022-12-23T08:43:31.773Z,9.80
2022-12-23T08:44:37.347Z,9.70
2022-12-23T08:45:39.224Z,9.80
2022-12-23T08:46:42.312Z,9.70
2022-12-23T08:47:44.336Z,9.80
2022-12-23T08:48:49.682Z,9.80
2022-12-23T08:49:51.760Z,9.80
2022-12-23T08:50:53.545Z,9.80
2022-12-23T08:51:55.545Z,9.80
2022-12-23T08:52:57.360Z,9.80
2022-12-23T08:54:01.448Z,9.80
2022-12-23T08:55:03.529Z,9.80
2022-12-23T08:56:23.866Z,9.80
2022-12-23T08:57:25.637Z,9.80
2022-12-23T08:58:27.636Z,9.80
2022-12-23T08:59:30.778Z,9.80
2022-12-23T09:00:32.600Z,9.80
2022-12-23T09:01:36.191Z,9.80
2022-12-23T09:02:39.645Z,9.80
2022-12-23T09:03:44.331Z,9.80
2022-12-23T09:04:46.629Z,9.80
2022-12-23T09:05:48.624Z,9.90
2022-12-23T09:06:50.878Z,9.80
2022-12-23T09:07:53.019Z,9.90
2022-12-23T09:08:56.771Z,9.90
2022-12-23T09:09:58.810Z,9.90
2022-12-23T09:11:01.423Z,9.90
2022-12-23T09:12:03.418Z,9.90
2022-12-23T09:13:06.033Z,9.90
2022-12-23T09:14:10.200Z,9.90
2022-12-23T09:15:12.303Z,9.90
2022-12-23T09:16:14.692Z,10.00
2022-12-23T09:17:17.822Z,10.00
2022-12-23T09:18:19.797Z,10.00
2022-12-23T09:19:21.618Z,10.00
2022-12-23T09:20:23.601Z,10.00
2022-12-23T09:21:25.500Z,10.00
2022-12-23T09:22:27.373Z,10.00
2022-12-23T09:23:29.359Z,10.10
2022-12-23T09:24:32.720Z,10.10
2022-12-23T09:25:36.459Z,10.10
2022-12-23T09:26:39.511Z,10.10
2022-12-23T09:27:43.581Z,10.10
2022-12-23T09:28:46.871Z,10.10
2022-12-23T09:29:49.695Z,10.10
2022-12-23T09:30:52.194Z,10.00
2022-12-23T09:31:54.058Z,10.10
2022-12-23T09:32:55.875Z,10.10
2022-12-23T09:33:57.944Z,10.10
2022-12-23T09:34:59.804Z,10.10
2022-12-23T09:36:02.776Z,10.10
2022-12-23T09:37:04.652Z,10.10
2022-12-23T09:38:07.150Z,10.10
2022-12-23T09:39:10.319Z,10.10
2022-12-23T09:40:15.479Z,10.10
2022-12-23T09:41:29.345Z,10.10
2022-12-23T09:42:58.096Z,10.10
2022-12-23T09:44:20.904Z,10.10
2022-12-23T09:45:40.528Z,10.10
2022-12-23T09:46:52.407Z,10.10
2022-12-23T09:47:56.022Z,10.10
2022-12-23T09:49:13.376Z,10.10
2022-12-23T09:50:29.596Z,10.10
2022-12-23T09:51:33.436Z,10.20
2022-12-23T09:52:46.416Z,10.20
2022-12-23T09:54:16.681Z,10.20
2022-12-23T09:55:22.527Z,10.20
2022-12-23T09:56:39.546Z,10.20
2022-12-23T09:58:01.250Z,10.20
2022-12-23T09:59:30.663Z,10.20
2022-12-23T10:00:43.270Z,10.20
2022-12-23T10:01:55.116Z,10.10
2022-12-23T10:03:09.627Z,10.20
2022-12-23T10:04:34.095Z,10.10
2022-12-23T10:06:00.320Z,10.20
2022-12-23T10:07:17.593Z,10.20
2022-12-23T10:08:39.436Z,10.20
2022-12-23T10:09:45.406Z,10.20
2022-12-23T10:10:48.867Z,10.20
2022-12-23T10:11:52.159Z,10.20
2022-12-23T10:12:56.037Z,10.20
2022-12-23T10:14:09.947Z,10.20
2022-12-23T10:15:18.621Z,10.20
2022-12-23T10:16:23.982Z,10.20
2022-12-23T10:17:38.242Z,10.20
2022-12-23T10:18:42.862Z,10.30
2022-12-23T10:19:47.225Z,10.30
2022-12-23T10:21:12.195Z,10.30
2022-12-23T10:22:38.666Z,10.30
2022-12-23T10:23:44.238Z,10.20
2022-12-23T10:24:47.135Z,10.20
2022-12-23T10:25:52.067Z,10.20
2022-12-23T10:27:15.132Z,10.30
2022-12-23T10:28:17.238Z,10.30
2022-12-23T10:29:31.844Z,10.20
2022-12-23T10:31:11.021Z,10.30
2022-12-23T10:32:34.104Z,10.30
2022-12-23T10:34:15.099Z,10.20
2022-12-23T10:36:07.326Z,10.20
2022-12-23T10:37:29.273Z,10.20
2022-12-23T10:39:06.019Z,10.20
2022-12-23T10:40:17.335Z,10.20
2022-12-23T10:41:50.034Z,10.20
2022-12-23T10:43:10.894Z,10.20
2022-12-23T10:44:43.957Z,10.30
2022-12-23T10:45:52.621Z,10.30
2022-12-23T10:47:24.710Z,10.30
2022-12-23T10:48:53.847Z,10.30
2022-12-23T10:50:40.675Z,10.30
2022-12-23T10:51:56.526Z,10.30
2022-12-23T10:53:03.144Z,10.30
2022-12-23T10:54:21.079Z,10.30
2022-12-23T10:55:33.878Z,10.30
2022-12-23T10:56:39.596Z,10.30
2022-12-23T10:58:28.077Z,10.30
2022-12-23T10:59:35.848Z,10.30
2022-12-23T11:00:42.976Z,10.40
2022-12-23T11:01:51.086Z,10.30
2022-12-23T11:03:16.523Z,10.30
2022-12-23T11:04:32.451Z,10.40
2022-12-23T11:05:34.564Z,10.40
2022-12-23T11:06:41.632Z,10.40
2022-12-23T11:07:46.051Z,10.40
2022-12-23T11:08:48.442Z,10.40
2022-12-23T11:10:07.096Z,10.40
2022-12-23T11:11:09.028Z,10.40
2022-12-23T11:12:12.583Z,10.40
2022-12-23T11:13:35.672Z,10.40
2022-12-23T11:14:43.461Z,10.40
2022-12-23T11:15:45.356Z,10.40
2022-12-23T11:16:47.378Z,10.40
2022-12-23T11:18:16.179Z,10.40
2022-12-23T11:19:18.221Z,10.40
2022-12-23T11:20:20.801Z,10.40
2022-12-23T11:21:23.187Z,10.40
2022-12-23T11:22:27.236Z,10.40
2022-12-23T11:23:32.136Z,10.40
2022-12-23T11:24:39.599Z,10.40
2022-12-23T11:25:46.448Z,10.50
2022-12-23T11:27:03.505Z,10.40
2022-12-23T11:28:10.462Z,10.50
2022-12-23T11:29:28.908Z,10.50
2022-12-23T11:30:33.294Z,10.50
2022-12-23T11:31:36.753Z,10.40
2022-12-23T11:32:39.348Z,10.40
2022-12-23T11:33:46.387Z,10.40
2022-12-23T11:34:49.681Z,10.40
2022-12-23T11:36:10.518Z,10.40
2022-12-23T11:37:32.748Z,10.40
2022-12-23T11:38:47.180Z,10.40
2022-12-23T11:39:51.556Z,10.40
2022-12-23T11:40:55.356Z,10.40
2022-12-23T11:42:30.424Z,10.40
2022-12-23T11:43:34.089Z,10.40
2022-12-23T11:44:41.755Z,10.40
2022-12-23T11:45:44.156Z,10.40
2022-12-23T11:46:46.779Z,10.30
2022-12-23T11:47:50.248Z,10.40
2022-12-23T11:49:05.536Z,10.40
2022-12-23T11:50:32.623Z,10.40
2022-12-23T11:51:37.820Z,10.40
2022-12-23T11:52:51.708Z,10.30
2022-12-23T11:54:00.795Z,10.40
2022-12-23T11:55:05.547Z,10.40
2022-12-23T11:56:10.771Z,10.40
2022-12-23T11:57:23.015Z,10.30
2022-12-23T11:58:25.897Z,10.30
2022-12-23T11:59:36.013Z,10.30
2022-12-23T12:00:55.322Z,10.30
2022-12-23T12:02:04.785Z,10.30
2022-12-23T12:03:08.443Z,10.30
2022-12-23T12:04:20.861Z,10.30
2022-12-23T12:05:46.465Z,10.30
2022-12-23T12:06:56.028Z,10.30
2022-12-23T12:08:06.890Z,10.30
2022-12-23T12:09:13.864Z,10.30
2022-12-23T12:10:37.608Z,10.30
2022-12-23T12:11:46.972Z,10.30
2022-12-23T12:13:08.544Z,10.30
2022-12-23T12:14:43.150Z,10.30
2022-12-23T12:16:02.998Z,10.30
2022-12-23T12:17:29.626Z,10.30
2022-12-23T12:18:32.207Z,10.30
2022-12-23T12:19:40.889Z,10.30
2022-12-23T12:20:55.678Z,10.30
2022-12-23T12:22:04.941Z,10.30
2022-12-23T12:23:09.580Z,10.30
2022-12-23T12:24:19.331Z,10.30
2022-12-23T12:25:49.314Z,10.20
2022-12-23T12:27:01.315Z,10.30
2022-12-23T12:28:05.483Z,10.30
2022-12-23T12:29:19.293Z,10.30
2022-12-23T12:30:22.070Z,10.30
2022-12-23T12:31:38.681Z,10.30
2022-12-23T12:32:59.487Z,10.30
2022-12-23T12:34:28.485Z,10.30
2022-12-23T12:35:58.902Z,10.30
2022-12-23T12:37:19.881Z,10.20
2022-12-23T12:38:32.959Z,10.20
2022-12-23T12:39:42.807Z,10.20
2022-12-23T12:41:07.216Z,10.20
2022-12-23T12:42:21.264Z,10.20
2022-12-23T12:43:40.495Z,10.20
2022-12-23T12:45:14.501Z,10.20
2022-12-23T12:46:25.631Z,10.20
2022-12-23T12:49:20.827Z,10.20
2022-12-23T12:50:28.093Z,10.20
2022-12-23T12:51:37.175Z,10.10
2022-12-23T12:52:43.243Z,10.20
2022-12-23T12:54:13.765Z,10.20
2022-12-23T12:55:16.551Z,10.20
2022-12-23T12:56:32.599Z,10.10
2022-12-23T12:57:36.165Z,10.20
2022-12-23T12:58:39.384Z,10.10
2022-12-23T12:59:43.056Z,10.20
2022-12-23T13:01:28.198Z,10.20
2022-12-23T13:02:48.738Z,10.20
2022-12-23T13:03:50.674Z,10.20
2022-12-23T13:05:01.557Z,10.10
2022-12-23T13:06:27.217Z,10.20
2022-12-23T13:07:58.191Z,10.20
2022-12-23T13:09:00.280Z,10.20
2022-12-23T13:10:36.968Z,10.20
2022-12-23T13:11:47.361Z,10.20
2022-12-23T13:13:01.681Z,10.20
2022-12-23T13:14:17.539Z,10.20
2022-12-23T13:15:35.608Z,10.20
2022-12-23T13:16:46.586Z,10.20
2022-12-23T13:18:13.596Z,10.20
2022-12-23T13:19:34.939Z,10.20
2022-12-23T13:20:48.648Z,10.20
2022-12-23T13:22:01.405Z,10.20
2022-12-23T13:23:42.372Z,10.20
2022-12-23T13:24:59.534Z,10.20
2022-12-23T13:26:22.432Z,10.20
2022-12-23T13:27:33.887Z,10.30
2022-12-23T13:28:52.280Z,10.20
2022-12-23T13:30:23.948Z,10.20
2022-12-23T13:31:51.921Z,10.20
2022-12-23T13:33:21.526Z,10.20
2022-12-23T13:34:55.417Z,10.20
2022-12-23T13:36:12.524Z,10.20
2022-12-23T13:37:14.744Z,10.20
2022-12-23T13:38:56.486Z,10.20
2022-12-23T13:40:17.709Z,10.20
2022-12-23T13:41:22.136Z,10.20
2022-12-23T13:42:33.793Z,10.20
2022-12-23T13:43:56.290Z,10.20
2022-12-23T13:45:00.608Z,10.20
2022-12-23T13:46:09.065Z,10.30
2022-12-23T13:47:28.039Z,10.30
2022-12-23T13:48:48.184Z,10.30
2022-12-23T13:49:57.588Z,10.30
2022-12-23T13:51:08.301Z,10.30
2022-12-23T13:52:48.291Z,10.20
2022-12-23T13:54:08.377Z,10.20
2022-12-23T13:55:41.370Z,10.20
2022-12-23T13:56:48.611Z,10.10
2022-12-23T13:58:01.069Z,10.10
2022-12-23T13:59:03.141Z,10.20
2022-12-23T14:00:17.028Z,10.20
2022-12-23T14:01:22.135Z,10.20
2022-12-23T14:02:36.539Z,10.20
2022-12-23T14:03:39.436Z,10.20
2022-12-23T14:04:59.163Z,10.20
2022-12-23T14:06:42.360Z,10.20
2022-12-23T14:07:44.871Z,10.10
2022-12-23T14:08:47.676Z,10.10
2022-12-23T14:09:56.875Z,10.10
2022-12-23T14:11:02.671Z,10.20
2022-12-23T14:12:28.682Z,10.20
2022-12-23T14:13:52.859Z,10.20
2022-12-23T14:15:35.731Z,10.20
2022-12-23T14:17:17.367Z,10.20
2022-12-23T14:18:31.522Z,10.30
2022-12-23T14:19:45.640Z,10.20
2022-12-23T14:21:07.568Z,10.30
2022-12-23T14:22:35.283Z,10.30
2022-12-23T14:24:04.689Z,10.30
2022-12-23T14:25:24.236Z,10.30
2022-12-23T14:27:02.871Z,10.30
2022-12-23T14:28:33.953Z,10.30
2022-12-23T14:30:21.342Z,10.20
2022-12-23T14:31:37.427Z,10.20
2022-12-23T14:33:02.588Z,10.20
2022-12-23T14:34:18.340Z,10.20
2022-12-23T14:35:48.303Z,10.20
2022-12-23T14:37:24.591Z,10.20
2022-12-23T14:38:31.273Z,10.20
2022-12-23T14:39:34.691Z,10.20
2022-12-23T14:40:39.497Z,10.20
2022-12-23T14:42:05.745Z,10.20
2022-12-23T14:43:25.317Z,10.20
2022-12-23T14:44:36.056Z,10.20
2022-12-23T14:45:45.012Z,10.20
2022-12-23T14:46:50.495Z,10.20
2022-12-23T14:47:53.551Z,10.20
2022-12-23T14:49:22.514Z,10.20
2022-12-23T14:50:42.760Z,10.20
2022-12-23T14:51:46.038Z,10.20
2022-12-23T14:52:58.525Z,10.20
2022-12-23T14:54:00.378Z,10.30
2022-12-23T14:55:32.403Z,10.20
2022-12-23T14:56:40.789Z,10.30
2022-12-23T14:57:46.078Z,10.30
2022-12-23T14:59:02.880Z,10.30
2022-12-23T15:00:06.278Z,10.30
2022-12-23T15:01:16.289Z,10.30